Time;durP1;ratioP1;P1;durP2;ratioP2;P2;SDS_P1;SDS_P2;PMS_P1;PMS_P2;Temp;Humidity;BMP_temperature;BMP_pressure;BME280_temperature;BME280_humidity;BME280_pressure;Samples;Min_cycle;Max_cycle;Signal;HPM_P1;HPM_P2
2021/10/09 00:02:20;;;;;;;29.13;17.60;;;;;;;10.97;nan;101578.75;5070145;28;20120;-72
2021/10/09 00:04:45;;;;;;;30.38;17.83;;;;;;;10.86;nan;101578.81;5071136;28;20029;-72
2021/10/09 00:07:10;;;;;;;27.90;17.15;;;;;;;10.87;nan;101583.97;5071129;28;20028;-72
2021/10/09 00:09:36;;;;;;;29.88;17.15;;;;;;;10.79;nan;101583.75;5071932;28;20025;-72
2021/10/09 00:12:01;;;;;;;26.98;17.10;;;;;;;10.75;nan;101577.91;5072151;28;20078;-72
2021/10/09 00:14:27;;;;;;;27.92;16.05;;;;;;;10.62;nan;101585.16;5073743;28;20089;-72
2021/10/09 00:16:52;;;;;;;30.90;17.70;;;;;;;10.69;nan;101581.03;5075602;28;20028;-72
2021/10/09 00:19:18;;;;;;;27.27;17.33;;;;;;;10.66;nan;101581.31;5071426;28;20028;-72
2021/10/09 00:21:44;;;;;;;28.33;17.90;;;;;;;10.53;nan;101580.63;5069677;28;20459;-72
2021/10/09 00:24:15;;;;;;;25.55;15.65;;;;;;;10.43;nan;101575.25;5067780;28;20500;-72
2021/10/09 00:26:41;;;;;;;27.73;17.00;;;;;;;10.42;nan;101573.56;5053096;28;20059;-72
2021/10/09 00:29:06;;;;;;;26.00;16.73;;;;;;;10.37;nan;101579.25;5072256;28;20036;-72
2021/10/09 00:31:31;;;;;;;31.73;18.58;;;;;;;10.46;nan;101577.63;5070445;28;20032;-72
2021/10/09 00:33:57;;;;;;;28.88;16.95;;;;;;;10.40;nan;101578.97;5075879;28;20170;-72
2021/10/09 00:36:22;;;;;;;28.27;18.35;;;;;;;10.43;nan;101577.06;5070286;28;20044;-72
2021/10/09 00:38:47;;;;;;;28.60;17.80;;;;;;;10.33;nan;101580.44;5070835;28;20058;-72
2021/10/09 00:41:13;;;;;;;25.73;16.90;;;;;;;10.22;nan;101575.13;5070333;28;20115;-72
2021/10/09 00:43:38;;;;;;;29.30;17.02;;;;;;;10.18;nan;101573.72;5070129;28;20146;-72
2021/10/09 00:46:04;;;;;;;28.40;18.23;;;;;;;10.15;nan;101577.47;5052075;28;20557;-72
2021/10/09 00:48:32;;;;;;;30.42;17.75;;;;;;;10.23;nan;101578.66;5075886;28;20131;-72
2021/10/09 00:50:58;;;;;;;30.63;17.42;;;;;;;10.19;nan;101576.22;5071635;28;20048;-72
2021/10/09 00:53:24;;;;;;;30.55;17.50;;;;;;;10.11;nan;101573.38;5071532;28;20087;-72
2021/10/09 00:55:52;;;;;;;30.65;18.02;;;;;;;10.24;nan;101570.56;5071468;28;20046;-72
2021/10/09 00:58:21;;;;;;;29.55;17.65;;;;;;;10.17;nan;101570.22;5070576;28;20032;-72
2021/10/09 01:00:47;;;;;;;28.77;18.67;;;;;;;10.11;nan;101565.44;5071621;28;20036;-72
2021/10/09 01:03:13;;;;;;;33.42;19.15;;;;;;;10.12;nan;101571.56;5053664;28;20060;-72
2021/10/09 01:05:39;;;;;;;31.42;19.20;;;;;;;10.10;nan;101563.75;5071231;28;20117;-72
2021/10/09 01:08:04;;;;;;;30.33;19.08;;;;;;;10.13;nan;101574.09;5070419;28;20032;-72
2021/10/09 01:10:30;;;;;;;31.92;18.70;;;;;;;10.12;nan;101561.00;5071079;28;20140;-72
2021/10/09 01:12:57;;;;;;;31.58;18.17;;;;;;;10.00;nan;101566.28;5070892;28;20063;-72
2021/10/09 01:15:29;;;;;;;29.08;18.08;;;;;;;10.03;nan;101567.00;5081899;28;20289;-72
2021/10/09 01:17:54;;;;;;;;;;;;;;;10.05;nan;101560.66;5075569;28;20037;-73
2021/10/09 01:20:19;;;;;;;29.00;17.33;;;;;;;9.98;nan;101554.16;5070083;28;19970;-73
2021/10/09 01:22:47;;;;;;;27.63;17.67;;;;;;;9.88;nan;101559.34;5071151;28;20270;-73
2021/10/09 01:25:12;;;;;;;28.83;17.88;;;;;;;9.87;nan;101554.22;5070426;28;20550;-73
2021/10/09 01:27:39;;;;;;;29.95;18.15;;;;;;;9.85;nan;101550.84;5070229;28;20048;-73
2021/10/09 01:30:07;;;;;;;28.08;17.65;;;;;;;9.84;nan;101557.91;5056869;28;20037;-73
2021/10/09 01:32:32;;;;;;;26.80;16.58;;;;;;;9.74;nan;101551.69;5071869;28;20058;-74
2021/10/09 01:34:57;;;;;;;26.42;16.55;;;;;;;9.71;nan;101557.22;5074316;28;20456;-74
2021/10/09 01:37:22;;;;;;;26.95;16.65;;;;;;;9.71;nan;101552.75;5051672;28;20370;-74
2021/10/09 01:39:48;;;;;;;25.10;16.48;;;;;;;9.72;nan;101551.78;5070332;28;20066;-74
2021/10/09 01:42:14;;;;;;;28.00;17.48;;;;;;;9.75;nan;101551.56;5068757;28;20052;-74
2021/10/09 01:44:40;;;;;;;32.60;16.95;;;;;;;9.69;nan;101548.56;5051104;28;20067;-74
2021/10/09 01:47:06;;;;;;;26.20;16.83;;;;;;;9.65;nan;101547.94;5070532;28;20028;-74
2021/10/09 01:49:32;;;;;;;27.58;17.35;;;;;;;9.71;nan;101551.94;5071752;28;20439;-74
2021/10/09 01:51:58;;;;;;;26.40;16.58;;;;;;;9.65;nan;101553.22;5069745;28;20067;-74
2021/10/09 01:54:23;;;;;;;28.77;17.20;;;;;;;9.63;nan;101551.69;5068753;28;20039;-74
2021/10/09 01:56:49;;;;;;;26.15;16.38;;;;;;;9.63;nan;101547.25;5069971;28;20075;-74
2021/10/09 01:59:15;;;;;;;27.75;16.90;;;;;;;9.67;nan;101550.47;5069373;28;20029;-73
2021/10/09 02:01:40;;;;;;;26.73;16.60;;;;;;;9.66;nan;101538.25;5069792;28;20038;-74
2021/10/09 02:04:05;;;;;;;27.33;17.20;;;;;;;9.62;nan;101540.28;5069675;28;20419;-74
2021/10/09 02:06:31;;;;;;;31.50;17.95;;;;;;;9.62;nan;101542.91;5068855;28;20390;-74
2021/10/09 02:08:56;;;;;;;28.40;17.42;;;;;;;9.52;nan;101537.53;5069472;28;20097;-74
2021/10/09 02:11:25;;;;;;;27.95;16.52;;;;;;;9.51;nan;101537.63;5069433;28;20032;-74
2021/10/09 02:24:45;;;;;;;30.73;16.95;;;;;;;9.67;nan;101529.34;5068446;28;20089;-74
2021/10/09 02:27:11;;;;;;;25.42;15.85;;;;;;;9.62;nan;101520.97;5073030;28;20060;-74
2021/10/09 02:29:36;;;;;;;25.23;16.00;;;;;;;9.66;nan;101527.69;5075335;28;20064;-74
2021/10/09 02:32:01;;;;;;;22.55;14.48;;;;;;;9.57;nan;101524.78;5065943;28;20040;-74
2021/10/09 02:34:27;;;;;;;24.80;15.20;;;;;;;9.54;nan;101527.69;5074259;28;20052;-74
2021/10/09 02:36:52;;;;;;;22.02;14.77;;;;;;;9.53;nan;101523.38;5066548;28;20037;-73
2021/10/09 02:39:17;;;;;;;22.90;14.85;;;;;;;9.52;nan;101516.41;5066369;28;20047;-74
2021/10/09 02:41:43;;;;;;;24.83;15.48;;;;;;;9.53;nan;101522.50;5075452;28;20111;-74
2021/10/09 02:44:08;;;;;;;26.27;15.40;;;;;;;9.47;nan;101528.28;5056847;22;20403;-83
2021/10/09 02:46:33;;;;;;;25.60;15.50;;;;;;;9.41;nan;101523.47;5034308;28;20060;-83
2021/10/09 02:48:59;;;;;;;26.02;16.58;;;;;;;9.36;nan;101523.84;5034997;28;20253;-83
2021/10/09 02:51:24;;;;;;;25.70;15.45;;;;;;;9.35;nan;101523.00;5015881;28;20049;-83
2021/10/09 02:53:49;;;;;;;27.65;16.98;;;;;;;9.45;nan;101520.47;5016731;28;20418;-84
2021/10/09 02:56:15;;;;;;;27.00;15.80;;;;;;;9.30;nan;101517.25;5026057;28;20100;-83
2021/10/09 02:58:40;;;;;;;27.92;16.98;;;;;;;9.30;nan;101513.78;5022551;28;20041;-84
2021/10/09 03:01:05;;;;;;;26.45;15.35;;;;;;;9.25;nan;101513.28;5017279;28;20048;-83
2021/10/09 03:03:31;;;;;;;25.67;15.30;;;;;;;9.28;nan;101521.78;5017163;28;20542;-83
2021/10/09 03:05:56;;;;;;;30.15;16.52;;;;;;;9.26;nan;101518.44;5015559;28;20033;-83
2021/10/09 03:08:21;;;;;;;26.45;15.90;;;;;;;9.21;nan;101510.03;5017643;28;20037;-84
2021/10/09 03:10:47;;;;;;;27.40;16.88;;;;;;;9.27;nan;101511.34;5026691;28;20380;-84
2021/10/09 03:13:12;;;;;;;28.33;17.02;;;;;;;9.22;nan;101510.88;5037898;28;20040;-83
2021/10/09 03:15:37;;;;;;;24.38;16.58;;;;;;;9.21;nan;101517.13;5022804;28;20033;-84
2021/10/09 03:18:03;;;;;;;30.02;17.63;;;;;;;9.22;nan;101521.41;5027830;28;20125;-84
2021/10/09 03:20:28;;;;;;;25.20;16.40;;;;;;;9.17;nan;101516.50;5032786;28;20054;-82
2021/10/09 03:22:53;;;;;;;26.17;16.30;;;;;;;9.13;nan;101525.63;5023356;28;20032;-84
2021/10/09 03:25:19;;;;;;;28.50;17.00;;;;;;;9.13;nan;101537.03;5023142;28;20029;-84
2021/10/09 03:27:44;;;;;;;27.17;17.52;;;;;;;9.07;nan;101529.56;5015947;28;20040;-83
2021/10/09 03:30:10;;;;;;;26.42;15.68;;;;;;;9.03;nan;101532.53;5029853;28;20061;-83
2021/10/09 03:32:37;;;;;;;31.83;16.85;;;;;;;9.06;nan;101533.16;5017416;28;20033;-84
2021/10/09 03:35:03;;;;;;;26.23;16.10;;;;;;;9.04;nan;101535.09;5032898;28;20389;-83
2021/10/09 03:37:28;;;;;;;25.35;15.85;;;;;;;8.98;nan;101530.25;5038762;28;20029;-83
2021/10/09 03:39:55;;;;;;;27.70;16.13;;;;;;;9.01;nan;101543.25;5039137;28;20038;-83
2021/10/09 03:42:25;;;;;;;29.13;17.15;;;;;;;8.96;nan;101542.72;5033150;28;20087;-84
2021/10/09 03:45:07;;;;;;;28.50;16.88;;;;;;;8.88;nan;101534.56;5016014;28;20045;-84
2021/10/09 03:52:52;;;;;;;29.88;17.85;;;;;;;8.74;nan;101543.50;5032474;28;20450;-84
2021/10/09 03:55:18;;;;;;;27.08;17.83;;;;;;;8.71;nan;101546.38;5014562;28;20026;-84
2021/10/09 03:57:44;;;;;;;25.38;15.77;;;;;;;8.64;nan;101556.53;5032322;28;20120;-83
2021/10/09 04:00:12;;;;;;;29.83;17.48;;;;;;;8.61;nan;101548.03;5014998;28;20042;-84
2021/10/09 04:02:37;;;;;;;31.88;18.05;;;;;;;8.60;nan;101548.97;5015922;28;20039;-84
2021/10/09 04:05:04;;;;;;;26.75;16.80;;;;;;;8.57;nan;101550.03;5033439;28;20093;-83
2021/10/09 04:07:29;;;;;;;27.27;16.20;;;;;;;8.53;nan;101543.28;5038139;28;20041;-84
2021/10/09 04:09:54;;;;;;;29.95;17.20;;;;;;;8.51;nan;101547.88;5019745;28;20560;-84
2021/10/09 04:12:20;;;;;;;28.13;16.85;;;;;;;8.56;nan;101542.25;5041201;28;20059;-83
2021/10/09 04:14:46;;;;;;;25.52;16.23;;;;;;;8.58;nan;101548.22;5024374;28;20494;-83
2021/10/09 04:17:11;;;;;;;24.45;16.00;;;;;;;8.60;nan;101546.31;5020545;28;20162;-83
2021/10/09 04:19:37;;;;;;;23.90;16.05;;;;;;;8.64;nan;101551.25;5027885;28;20041;-81
2021/10/09 04:22:03;;;;;;;24.27;15.18;;;;;;;8.70;nan;101550.81;5047821;28;20037;-81
2021/10/09 04:24:28;;;;;;;30.08;16.50;;;;;;;8.77;nan;101545.06;5032319;28;20047;-83
2021/10/09 04:26:54;;;;;;;31.88;16.23;;;;;;;8.76;nan;101546.88;5032550;28;20105;-82
2021/10/09 04:29:19;;;;;;;27.25;14.95;;;;;;;8.73;nan;101539.19;5032746;28;20207;-82
2021/10/09 04:31:45;;;;;;;24.48;14.60;;;;;;;8.73;nan;101541.84;5021108;28;20048;-82
2021/10/09 04:34:11;;;;;;;25.08;15.35;;;;;;;8.78;nan;101538.84;5020468;28;20041;-83
2021/10/09 04:36:36;;;;;;;24.95;15.10;;;;;;;8.75;nan;101539.06;5036761;28;20056;-83
2021/10/09 04:39:02;;;;;;;23.23;15.27;;;;;;;8.75;nan;101537.28;5017898;28;20033;-83
2021/10/09 04:41:27;;;;;;;26.38;15.25;;;;;;;8.80;nan;101545.69;5019212;28;20181;-84
2021/10/09 04:43:52;;;;;;;26.58;15.15;;;;;;;8.76;nan;101538.97;5017233;28;20062;-81
2021/10/09 04:46:18;;;;;;;31.70;16.45;;;;;;;8.73;nan;101536.56;5016088;28;20030;-82
2021/10/09 04:48:43;;;;;;;28.25;15.10;;;;;;;8.75;nan;101536.44;5026422;28;20033;-84
2021/10/09 04:51:08;;;;;;;27.92;15.55;;;;;;;8.70;nan;101531.53;5018038;28;20034;-82
2021/10/09 04:53:34;;;;;;;22.05;13.63;;;;;;;8.66;nan;101530.91;5035286;28;20034;-83
2021/10/09 04:56:00;;;;;;;22.42;14.55;;;;;;;8.75;nan;101537.28;5039063;28;20036;-83
2021/10/09 04:58:25;;;;;;;23.55;14.35;;;;;;;8.70;nan;101540.28;5039033;28;20045;-82
2021/10/09 05:00:51;;;;;;;25.63;15.15;;;;;;;8.71;nan;101539.31;5019183;28;20515;-82
2021/10/09 05:03:17;;;;;;;28.73;15.38;;;;;;;8.71;nan;101541.94;5021248;28;20088;-82
2021/10/09 05:05:43;;;;;;;24.85;14.70;;;;;;;8.65;nan;101539.78;5034176;28;20025;-83
2021/10/09 05:08:09;;;;;;;22.00;13.73;;;;;;;8.67;nan;101545.75;5045117;28;20029;-82
2021/10/09 05:10:34;;;;;;;21.70;13.32;;;;;;;8.63;nan;101546.13;5035406;28;20037;-83
2021/10/09 05:13:00;;;;;;;25.30;14.07;;;;;;;8.60;nan;101541.06;5016589;28;20052;-82
2021/10/09 05:15:25;;;;;;;26.15;14.88;;;;;;;8.65;nan;101555.59;5036468;28;20030;-83
2021/10/09 05:17:51;;;;;;;23.13;13.60;;;;;;;8.55;nan;101549.31;5016888;28;20120;-83
2021/10/09 05:20:16;;;;;;;24.23;14.45;;;;;;;8.55;nan;101557.22;5033993;28;20065;-81
2021/10/09 05:22:41;;;;;;;23.35;14.13;;;;;;;8.46;nan;101557.88;5041868;28;20033;-83
2021/10/09 05:25:07;;;;;;;26.85;14.02;;;;;;;8.45;nan;101561.50;5022091;28;20049;-82
2021/10/09 05:27:35;;;;;;;20.05;12.57;;;;;;;8.36;nan;101556.84;5025320;28;20120;-83
2021/10/09 05:30:08;;;;;;;23.83;14.25;;;;;;;8.41;nan;101568.75;5021479;28;20037;-83
2021/10/09 05:32:36;;;;;;;23.67;13.75;;;;;;;8.36;nan;101562.13;5036290;28;20048;-81
2021/10/09 05:35:02;;;;;;;23.27;14.20;;;;;;;8.38;nan;101560.22;5011536;28;20037;-82
2021/10/09 05:37:31;;;;;;;24.58;13.82;;;;;;;8.37;nan;101559.38;5036951;28;20043;-83
2021/10/09 05:39:57;;;;;;;22.02;13.82;;;;;;;8.35;nan;101566.56;5030602;28;20047;-83
2021/10/09 05:42:22;;;;;;;22.60;14.18;;;;;;;8.40;nan;101568.91;5024264;28;20065;-83
2021/10/09 05:44:50;;;;;;;21.48;13.63;;;;;;;8.29;nan;101567.00;5041161;28;20033;-82
2021/10/09 05:47:15;;;;;;;21.88;13.55;;;;;;;8.25;nan;101570.81;5043729;28;20044;-83
2021/10/09 05:49:40;;;;;;;24.48;13.82;;;;;;;8.26;nan;101573.31;5036753;28;20045;-83
2021/10/09 05:52:16;;;;;;;21.65;14.00;;;;;;;8.21;nan;101580.72;5034757;28;20033;-82
2021/10/09 05:55:08;;;;;;;19.13;13.23;;;;;;;8.18;nan;101583.59;5016692;28;20414;-82
2021/10/09 05:57:37;;;;;;;18.85;12.77;;;;;;;8.15;nan;101586.47;5034487;28;20072;-82
2021/10/09 06:00:27;;;;;;;23.45;13.25;;;;;;;8.20;nan;101586.97;5014827;28;20041;-83
2021/10/09 06:50:07;;;;;;;17.73;11.63;;;;;;;10.96;nan;101627.34;5025024;28;20068;-82
2021/10/09 07:00:44;;;;;;;17.55;10.60;;;;;;;12.79;nan;101622.13;5022773;28;20061;-82
2021/10/09 07:03:10;;;;;;;17.60;10.40;;;;;;;12.98;nan;101627.44;5033714;28;20462;-83
2021/10/09 07:05:40;;;;;;;16.08;10.23;;;;;;;12.95;nan;101620.59;5018524;28;20030;-84
2021/10/09 07:08:09;;;;;;;14.38;9.48;;;;;;;13.41;nan;101628.00;5033122;28;20037;-83
2021/10/09 07:10:40;;;;;;;14.55;9.68;;;;;;;13.62;nan;101628.63;5032641;28;20064;-83
2021/10/09 07:13:06;;;;;;;15.88;10.30;;;;;;;13.74;nan;101632.78;5008279;28;20033;-82
2021/10/09 07:15:35;;;;;;;17.30;10.02;;;;;;;13.16;nan;101638.22;5016099;28;20048;-84
2021/10/09 07:18:00;;;;;;;17.33;10.98;;;;;;;12.47;nan;101649.78;5015149;28;20043;-83
2021/10/09 07:20:26;;;;;;;21.77;12.02;;;;;;;12.17;nan;101643.53;5019666;28;20084;-83
2021/10/09 07:22:51;;;;;;;20.35;11.80;;;;;;;11.85;nan;101639.19;5016752;28;20136;-82
2021/10/09 07:25:17;;;;;;;14.20;10.70;;;;;;;11.34;nan;101642.66;5033360;28;20116;-83
2021/10/09 07:27:43;;;;;;;16.48;11.63;;;;;;;11.21;nan;101645.53;5034078;28;20102;-82
2021/10/09 07:30:08;;;;;;;19.85;11.50;;;;;;;11.07;nan;101645.81;5033890;28;20037;-83
2021/10/09 07:32:34;;;;;;;19.02;10.73;;;;;;;11.05;nan;101640.66;5016832;28;20053;-82
2021/10/09 07:34:59;;;;;;;17.27;11.25;;;;;;;11.05;nan;101645.94;5034357;28;20313;-82
2021/10/09 07:37:25;;;;;;;16.85;10.60;;;;;;;11.02;nan;101650.66;5015556;28;20038;-82
2021/10/09 07:39:51;;;;;;;25.30;12.40;;;;;;;10.88;nan;101648.31;5035868;28;20128;-83
2021/10/09 07:42:16;;;;;;;19.20;12.10;;;;;;;11.03;nan;101650.53;5027198;28;20033;-83
2021/10/09 07:44:41;;;;;;;19.83;11.95;;;;;;;10.97;nan;101651.03;5029199;28;20108;-84
2021/10/09 07:47:08;;;;;;;20.05;12.20;;;;;;;10.91;nan;101648.06;5048816;28;20037;-83
2021/10/09 07:49:34;;;;;;;16.00;10.57;;;;;;;11.04;nan;101657.50;5033142;28;20034;-82
2021/10/09 07:51:59;;;;;;;22.30;11.95;;;;;;;11.17;nan;101657.31;5019593;28;20041;-82
2021/10/09 07:54:25;;;;;;;18.65;11.20;;;;;;;11.29;nan;101662.56;5018441;28;20463;-84
2021/10/09 07:56:50;;;;;;;20.52;12.75;;;;;;;11.46;nan;101660.19;5019251;28;20048;-83
2021/10/09 07:59:15;;;;;;;20.02;12.40;;;;;;;11.38;nan;101661.81;5025596;28;20071;-86
2021/10/09 08:01:40;;;;;;;20.25;12.35;;;;;;;11.48;nan;101654.75;5019295;28;20125;-83
2021/10/09 08:04:09;;;;;;;20.92;13.00;;;;;;;11.68;nan;101645.13;5019916;28;20033;-82
2021/10/09 08:06:35;;;;;;;19.90;12.95;;;;;;;11.81;nan;101656.34;5028111;28;20044;-83
2021/10/09 08:09:00;;;;;;;19.10;11.52;;;;;;;11.95;nan;101652.53;5026650;28;20414;-82
2021/10/09 08:11:26;;;;;;;22.70;13.38;;;;;;;12.52;nan;101658.16;5043156;28;20061;-84
2021/10/09 08:13:51;;;;;;;19.35;10.85;;;;;;;13.44;nan;101647.13;5038525;28;20056;-84
2021/10/09 08:16:16;;;;;;;15.13;10.25;;;;;;;14.77;nan;101653.97;5018952;28;20038;-84
2021/10/09 08:18:42;;;;;;;13.52;9.15;;;;;;;15.78;nan;101658.91;5046736;28;20029;-83
2021/10/09 08:21:08;;;;;;;13.80;9.38;;;;;;;16.78;nan;101654.63;5020692;28;20079;-83
2021/10/09 08:23:59;;;;;;;13.48;9.05;;;;;;;17.44;nan;101654.66;5022600;28;20120;-84
2021/10/09 08:26:47;;;;;;;15.32;9.10;;;;;;;17.97;nan;101656.72;5032416;28;20490;-83
2021/10/09 08:40:10;;;;;;;16.80;9.18;;;;;;;21.10;nan;101653.47;5036545;28;20040;-84
2021/10/09 08:42:36;;;;;;;15.45;9.50;;;;;;;21.65;nan;101664.47;5034624;28;20053;-84
2021/10/09 08:45:02;;;;;;;13.07;8.05;;;;;;;21.28;nan;101657.53;5023232;28;20083;-84
2021/10/09 08:47:32;;;;;;;12.38;7.75;;;;;;;21.55;nan;101661.31;5023210;28;20383;-84
2021/10/09 08:49:58;;;;;;;10.38;7.30;;;;;;;22.15;nan;101654.38;5021267;28;20033;-84
2021/10/09 08:52:23;;;;;;;13.38;8.90;;;;;;;22.40;nan;101661.94;5015040;28;20044;-84
2021/10/09 08:54:49;;;;;;;11.65;7.82;;;;;;;21.92;nan;101657.38;5035915;28;20029;-84
2021/10/09 08:57:19;;;;;;;13.43;8.73;;;;;;;22.03;nan;101654.13;5016468;28;20038;-84
2021/10/09 08:59:57;;;;;;;11.05;7.40;;;;;;;22.20;nan;101665.41;5017971;28;20384;-84
2021/10/09 09:40:44;;;;;;;11.77;8.18;;;;;;;16.70;nan;101627.88;4992182;28;20037;-84
2021/10/09 09:43:10;;;;;;;12.05;7.65;;;;;;;16.59;nan;101623.72;5015245;28;20041;-83
2021/10/09 09:45:37;;;;;;;11.38;8.40;;;;;;;16.56;nan;101624.88;5035111;28;20040;-83
2021/10/09 09:48:04;;;;;;;14.48;7.70;;;;;;;16.43;nan;101618.34;5043561;28;20501;-83
2021/10/09 09:50:31;;;;;;;11.73;7.50;;;;;;;16.60;nan;101620.03;5028168;28;20049;-84
2021/10/09 09:53:00;;;;;;;10.98;6.65;;;;;;;16.44;nan;101618.16;5015098;28;20438;-82
2021/10/09 09:55:25;;;;;;;11.07;6.72;;;;;;;16.52;nan;101625.38;5034047;28;20041;-83
2021/10/09 09:57:51;;;;;;;11.27;6.25;;;;;;;16.43;nan;101621.84;5041476;28;20033;-84
2021/10/09 10:00:17;;;;;;;12.63;6.68;;;;;;;16.12;nan;101618.91;5054049;28;20116;-83
2021/10/09 10:02:47;;;;;;;13.13;6.65;;;;;;;16.43;nan;101621.84;5051710;28;20465;-83
2021/10/09 10:05:12;;;;;;;10.02;5.95;;;;;;;16.12;nan;101625.06;5034084;28;20033;-83
2021/10/09 10:07:39;;;;;;;10.75;6.90;;;;;;;16.26;nan;101631.63;5034967;28;20037;-83
2021/10/09 10:10:06;;;;;;;13.15;7.30;;;;;;;15.98;nan;101635.53;5025648;28;20043;-84
2021/10/09 10:12:32;;;;;;;9.02;6.22;;;;;;;15.92;nan;101620.97;5046904;28;20057;-83
2021/10/09 10:14:59;;;;;;;11.98;6.68;;;;;;;15.83;nan;101619.28;5017234;28;20030;-85
2021/10/09 10:17:36;;;;;;;11.25;6.93;;;;;;;15.51;nan;101626.91;5014988;28;20128;-84
2021/10/09 10:20:02;;;;;;;9.40;6.30;;;;;;;15.77;nan;101619.91;5034252;28;20040;-84
2021/10/09 10:22:33;;;;;;;11.05;6.72;;;;;;;15.71;nan;101627.56;5017045;28;20059;-83
2021/10/09 10:24:59;;;;;;;;;;;;;;;15.54;nan;101622.25;5016949;28;20045;-83
2021/10/09 10:27:31;;;;;;;10.57;7.00;;;;;;;15.39;nan;101622.00;5034730;28;20412;-83
2021/10/09 10:30:15;;;;;;;9.93;6.05;;;;;;;15.10;nan;101631.13;5017754;28;20044;-82
2021/10/09 10:32:56;;;;;;;10.75;6.25;;;;;;;15.44;nan;101617.84;5019801;28;20041;-83
2021/10/09 10:35:30;;;;;;;11.43;6.73;;;;;;;15.43;nan;101623.38;5002525;28;20071;-83
2021/10/09 10:38:04;;;;;;;10.25;6.72;;;;;;;15.14;nan;101629.00;5035236;28;20041;-83
2021/10/09 10:40:51;;;;;;;11.90;6.47;;;;;;;15.37;nan;101619.47;5031537;28;20088;-83
2021/10/09 10:46:02;;;;;;;11.95;6.05;;;;;;;15.47;nan;101617.56;5034653;28;20109;-83
2021/10/09 10:48:48;;;;;;;;;;;;;;;15.39;nan;101608.66;5045611;28;20430;-83
2021/10/09 10:57:01;;;;;;;11.13;5.97;;;;;;;15.59;nan;101611.94;5042407;28;20064;-84
2021/10/09 10:59:48;;;;;;;9.45;5.63;;;;;;;15.68;nan;101605.66;5045354;28;20048;-85
2021/10/09 11:02:23;;;;;;;8.52;5.30;;;;;;;15.83;nan;101606.78;5027906;28;20053;-82
2021/10/09 11:05:05;;;;;;;11.25;6.10;;;;;;;16.00;nan;101604.19;5022043;28;20037;-85
2021/10/09 11:07:36;;;;;;;9.70;6.10;;;;;;;16.02;nan;101607.53;5022624;28;20041;-82
2021/10/09 11:10:06;;;;;;;9.68;6.18;;;;;;;16.01;nan;101606.69;5024672;28;20045;-84
2021/10/09 11:12:34;;;;;;;14.45;6.70;;;;;;;16.13;nan;101601.88;5041399;28;20045;-84
2021/10/09 11:15:06;;;;;;;9.82;5.95;;;;;;;15.96;nan;101597.50;5025633;28;20041;-85
2021/10/09 11:17:37;;;;;;;10.13;6.13;;;;;;;15.96;nan;101603.66;5028644;28;20034;-85
2021/10/09 11:20:11;;;;;;;12.27;5.75;;;;;;;16.00;nan;101604.19;5024549;28;20041;-85
2021/10/09 11:22:43;;;;;;;9.98;6.07;;;;;;;16.20;nan;101586.91;5044700;28;20099;-83
2021/10/09 11:25:20;;;;;;;10.45;6.45;;;;;;;16.37;nan;101584.28;5025480;28;20093;-84
2021/10/09 11:27:46;;;;;;;10.13;6.05;;;;;;;16.44;nan;101591.47;5027292;28;20132;-83
2021/10/09 11:30:12;;;;;;;8.73;5.75;;;;;;;16.55;nan;101593.81;5040345;28;20061;-84
2021/10/09 11:32:39;;;;;;;10.30;6.22;;;;;;;16.62;nan;101591.34;5043552;28;20033;-84
2021/10/09 11:35:06;;;;;;;10.07;5.55;;;;;;;16.51;nan;101586.31;5015155;28;20049;-84
2021/10/09 11:37:33;;;;;;;12.00;5.70;;;;;;;16.31;nan;101589.28;5024977;28;20048;-83
2021/10/09 11:40:03;;;;;;;13.02;5.68;;;;;;;16.35;nan;101593.28;5035677;28;20097;-84
2021/10/09 11:42:31;;;;;;;8.52;5.72;;;;;;;16.34;nan;101585.44;5014099;28;20119;-86
2021/10/09 11:53:38;;;;;;;9.43;5.80;;;;;;;16.65;nan;101591.00;5035230;28;20040;-84
2021/10/09 11:56:09;;;;;;;9.80;5.65;;;;;;;16.66;nan;101590.00;5024419;28;20033;-83
2021/10/09 11:59:02;;;;;;;12.45;5.78;;;;;;;16.81;nan;101595.56;5025871;28;20045;-84
2021/10/09 12:01:30;;;;;;;9.95;5.47;;;;;;;16.86;nan;101584.38;5043935;28;20045;-85
2021/10/09 12:04:11;;;;;;;9.57;5.35;;;;;;;16.85;nan;101583.53;5026295;28;20029;-85
2021/10/09 12:06:47;;;;;;;7.53;5.88;;;;;;;16.76;nan;101577.31;5037341;28;20053;-85
2021/10/09 12:09:15;;;;;;;7.80;5.40;;;;;;;16.69;nan;101578.16;5022259;28;20233;-85
2021/10/09 12:11:40;;;;;;;8.18;5.32;;;;;;;16.77;nan;101578.97;5023063;28;20106;-85
2021/10/09 12:14:10;;;;;;;9.98;5.57;;;;;;;17.01;nan;101577.34;5026774;28;20171;-84
2021/10/09 12:16:46;;;;;;;10.13;6.45;;;;;;;17.10;nan;101578.16;5024321;28;20048;-86
2021/10/09 12:19:15;;;;;;;14.20;5.47;;;;;;;17.13;nan;101570.63;5020868;28;20394;-85
2021/10/09 12:21:49;;;;;;;11.23;5.15;;;;;;;17.13;nan;101578.66;5020878;28;20384;-85
2021/10/09 12:24:17;;;;;;;11.57;6.03;;;;;;;16.84;nan;101570.34;5039886;28;20410;-84
2021/10/09 12:27:12;;;;;;;10.93;5.50;;;;;;;16.65;nan;101571.47;5017035;28;20506;-85
2021/10/09 12:29:59;;;;;;;10.77;5.97;;;;;;;16.59;nan;101572.97;5018056;28;20538;-84
2021/10/09 12:32:25;;;;;;;10.05;5.72;;;;;;;16.66;nan;101567.78;5025144;28;20037;-85
2021/10/09 12:35:29;;;;;;;8.73;5.78;;;;;;;16.83;nan;101568.66;5023419;28;20500;-83
2021/10/09 12:38:03;;;;;;;8.80;5.43;;;;;;;16.79;nan;101562.81;5040674;28;20089;-84
2021/10/09 12:40:40;;;;;;;9.13;5.50;;;;;;;16.87;nan;101562.81;5019654;28;20530;-84
2021/10/09 12:43:13;;;;;;;9.13;5.20;;;;;;;16.83;nan;101560.63;5018558;28;20060;-84
2021/10/09 12:45:40;;;;;;;9.80;5.20;;;;;;;16.86;nan;101560.31;5019756;28;20132;-86
2021/10/09 12:48:06;;;;;;;11.13;5.75;;;;;;;16.85;nan;101554.16;5049429;28;20055;-84
2021/10/09 12:50:34;;;;;;;10.20;5.63;;;;;;;16.96;nan;101556.47;5026760;28;20121;-83
2021/10/09 12:52:59;;;;;;;11.13;5.70;;;;;;;16.84;nan;101560.47;5035823;28;20182;-84
2021/10/09 12:55:27;;;;;;;9.85;5.70;;;;;;;17.03;nan;101566.47;5022980;28;20030;-83
2021/10/09 12:57:58;;;;;;;8.40;5.50;;;;;;;17.10;nan;101556.78;5039607;28;20041;-83
2021/10/09 13:00:26;;;;;;;8.05;5.60;;;;;;;16.83;nan;101556.16;5018937;28;20033;-84
2021/10/09 13:02:52;;;;;;;8.00;5.55;;;;;;;16.89;nan;101551.97;5019401;28;20453;-83
2021/10/09 13:05:22;;;;;;;10.18;5.78;;;;;;;17.10;nan;101551.44;5037354;28;20122;-84
2021/10/09 13:07:48;;;;;;;7.23;5.00;;;;;;;17.09;nan;101542.59;5033964;28;20045;-84
2021/10/09 13:10:15;;;;;;;8.55;5.22;;;;;;;16.95;nan;101545.97;5017058;28;20045;-83
2021/10/09 13:12:40;;;;;;;9.63;6.13;;;;;;;17.09;nan;101539.06;5017503;28;20037;-83
2021/10/09 13:15:06;;;;;;;9.15;5.43;;;;;;;17.10;nan;101543.44;5041715;28;20060;-84
2021/10/09 13:17:32;;;;;;;8.88;5.65;;;;;;;17.09;nan;101537.25;5037072;28;20041;-83
2021/10/09 13:19:57;;;;;;;8.63;4.82;;;;;;;17.19;nan;101542.41;5038207;28;20121;-84
2021/10/09 13:22:23;;;;;;;8.48;5.00;;;;;;;17.16;nan;101529.38;5039728;28;20135;-83
2021/10/09 13:24:48;;;;;;;8.95;4.93;;;;;;;17.04;nan;101528.06;5038272;28;20052;-84
2021/10/09 13:27:13;;;;;;;10.45;4.80;;;;;;;17.03;nan;101535.25;5035375;28;20403;-84
2021/10/09 13:29:39;;;;;;;8.60;5.22;;;;;;;17.07;nan;101527.75;5018915;28;20079;-85
2021/10/09 13:32:05;;;;;;;9.98;5.40;;;;;;;17.13;nan;101533.22;5038500;28;20109;-84
2021/10/09 13:34:30;;;;;;;8.82;5.22;;;;;;;17.38;nan;101525.97;5024791;28;20037;-85
2021/10/09 13:36:56;;;;;;;7.90;4.97;;;;;;;17.27;nan;101530.84;5022860;28;20045;-83
2021/10/09 13:39:21;;;;;;;7.68;5.65;;;;;;;17.25;nan;101531.03;5021416;28;20033;-82
2021/10/09 13:41:47;;;;;;;6.95;5.03;;;;;;;17.10;nan;101527.38;5020137;28;20125;-84
2021/10/09 13:44:12;;;;;;;10.13;5.38;;;;;;;17.06;nan;101528.72;5020413;28;20065;-85
2021/10/09 13:46:38;;;;;;;8.88;4.90;;;;;;;16.97;nan;101520.75;5022828;28;20049;-85
2021/10/09 13:49:05;;;;;;;7.68;5.43;;;;;;;17.11;nan;101516.53;5037958;28;20033;-85
2021/10/09 13:51:31;;;;;;;10.32;5.75;;;;;;;17.01;nan;101520.38;5029538;28;20037;-84
2021/10/09 13:53:57;;;;;;;9.73;5.93;;;;;;;17.12;nan;101525.38;5021760;28;20040;-84
2021/10/09 13:56:22;;;;;;;8.75;5.97;;;;;;;17.11;nan;101521.03;5022813;28;20064;-85